Terminal Aerodrome Forecast
Issued by NWS Wilmington, OH

Current Version | Previous Version | Text Only | Print | Product List | Glossary Off
Versions: 1 2 3 4 5 6 7 8 9 10 11 12 13 14 15 16 17 18 19 20 21 22 23 24 25

530
FTUS41 KILN 172100 AAB
TAFCMH
TAF AMD
KCMH 172100Z 1721/1818 14003KT 3/4SM -SN BR BKN009 OVC016
     FM180000 23005KT 5SM BR VCSH OVC006
     FM180700 27007KT P6SM BKN012
     FM181300 VRB03KT P6SM SCT016
     FM181700 17006KT P6SM SCT250=

USA.gov is the U.S. government's official web portal to all federal, state and local government web resources and services.